Time;durP1;ratioP1;P1;durP2;ratioP2;P2;SDS_P1;SDS_P2;PMS_P1;PMS_P2;Temp;Humidity;BMP_temperature;BMP_pressure;BME280_temperature;BME280_humidity;BME280_pressure;Samples;Min_cycle;Max_cycle;Signal;HPM_P1;HPM_P2
2022/04/05 00:00:43;;;;;;;7.00;1.80;;;;;;;;;;6219651;23;20020;-93
2022/04/05 00:03:09;;;;;;;12.55;1.95;;;;;;;;;;6220095;23;20095;-93
2022/04/05 00:05:35;;;;;;;7.32;1.80;;;;;;;;;;6194381;23;20012;-92
2022/04/05 00:08:01;;;;;;;8.38;1.88;;;;;;;;;;6220662;23;20074;-93
2022/04/05 00:10:27;;;;;;;7.30;1.50;;;;;;;;;;6229006;23;20034;-93
2022/04/05 00:12:53;;;;;;;7.28;1.65;;;;;;;;;;6219596;23;20066;-93
2022/04/05 00:15:19;;;;;;;7.03;2.30;;;;;;;;;;6194377;23;20012;-92
2022/04/05 00:17:45;;;;;;;9.73;1.88;;;;;;;;;;6219689;23;20012;-94
2022/04/05 00:20:11;;;;;;;6.85;1.60;;;;;;;;;;6220330;23;20083;-95
2022/04/05 00:22:37;;;;;;;8.13;1.55;;;;;;;;;;6219635;23;20087;-92
2022/04/05 00:25:04;;;;;;;8.15;1.80;;;;;;;;;;6219476;23;20043;-94
2022/04/05 00:27:30;;;;;;;6.90;1.52;;;;;;;;;;6219886;23;20449;-93
2022/04/05 00:29:56;;;;;;;7.75;1.20;;;;;;;;;;6246615;23;20051;-94
2022/04/05 00:32:22;;;;;;;6.22;1.33;;;;;;;;;;6219818;23;20016;-96
2022/04/05 00:34:48;;;;;;;9.15;1.40;;;;;;;;;;6219600;23;20031;-93
2022/04/05 00:37:14;;;;;;;12.13;1.33;;;;;;;;;;6219273;23;20008;-93
2022/04/05 00:39:40;;;;;;;10.23;1.23;;;;;;;;;;6219558;23;20428;-93
2022/04/05 00:42:09;;;;;;;9.73;1.30;;;;;;;;;;6219354;23;20040;-94
2022/04/05 00:44:35;;;;;;;7.38;1.80;;;;;;;;;;6194817;23;20012;-94
2022/04/05 00:47:10;;;;;;;8.18;1.50;;;;;;;;;;6219330;23;20162;-93
2022/04/05 00:49:36;;;;;;;7.50;1.10;;;;;;;;;;6219525;23;20369;-94
2022/04/05 00:52:02;;;;;;;10.43;1.50;;;;;;;;;;6219129;23;20344;-92
2022/04/05 00:54:29;;;;;;;7.82;1.15;;;;;;;;;;6219469;23;20016;-95
2022/04/05 00:56:57;;;;;;;6.15;0.95;;;;;;;;;;6194621;23;20012;-94
2022/04/05 00:59:24;;;;;;;11.50;1.52;;;;;;;;;;6219725;23;20057;-93
2022/04/05 01:01:52;;;;;;;8.30;1.20;;;;;;;;;;6195026;23;20044;-93
2022/04/05 01:04:18;;;;;;;9.07;1.58;;;;;;;;;;6221274;23;20031;-93
2022/04/05 01:06:45;;;;;;;9.50;1.52;;;;;;;;;;6221171;23;20012;-94
2022/04/05 01:09:12;;;;;;;7.70;1.30;;;;;;;;;;6220979;23;20156;-91
2022/04/05 01:11:38;;;;;;;12.63;1.55;;;;;;;;;;6220940;23;20020;-94
2022/04/05 01:14:04;;;;;;;9.68;1.40;;;;;;;;;;6221022;23;20013;-93
2022/04/05 01:16:30;;;;;;;9.95;1.30;;;;;;;;;;6220732;23;20008;-92
2022/04/05 01:18:57;;;;;;;12.10;1.33;;;;;;;;;;6221295;23;20019;-93
2022/04/05 01:21:23;;;;;;;9.55;1.17;;;;;;;;;;6221074;23;20008;-94
2022/04/05 01:24:09;;;;;;;11.18;1.92;;;;;;;;;;6220914;23;20016;-93
2022/04/05 01:26:45;;;;;;;10.90;1.85;;;;;;;;;;6221037;23;20368;-94
2022/04/05 01:29:11;;;;;;;14.23;1.65;;;;;;;;;;6221204;23;20077;-92
2022/04/05 01:31:43;;;;;;;7.18;1.20;;;;;;;;;;6220935;23;20071;-92
2022/04/05 01:34:09;;;;;;;9.73;1.98;;;;;;;;;;6195933;23;20445;-92
2022/04/05 01:36:40;;;;;;;14.95;2.00;;;;;;;;;;6220937;23;20012;-93
2022/04/05 01:39:06;;;;;;;8.25;1.65;;;;;;;;;;6196180;23;20365;-93
2022/04/05 01:41:32;;;;;;;11.15;1.52;;;;;;;;;;6247346;23;20012;-92
2022/04/05 01:43:58;;;;;;;7.80;1.13;;;;;;;;;;6220839;23;20019;-92
2022/04/05 01:46:24;;;;;;;8.32;1.98;;;;;;;;;;6220686;23;20099;-93
2022/04/05 01:48:51;;;;;;;8.57;1.30;;;;;;;;;;6221425;23;20042;-92
2022/04/05 01:51:17;;;;;;;11.18;1.92;;;;;;;;;;6220843;23;20012;-94
2022/04/05 01:53:43;;;;;;;9.63;1.50;;;;;;;;;;6220853;23;20153;-93
2022/04/05 01:56:09;;;;;;;10.15;1.63;;;;;;;;;;6220891;23;20016;-93
2022/04/05 01:58:38;;;;;;;11.60;1.83;;;;;;;;;;6220904;23;20031;-93
2022/04/05 02:01:04;;;;;;;12.55;1.40;;;;;;;;;;6196148;23;20012;-94
2022/04/05 02:03:30;;;;;;;6.28;1.45;;;;;;;;;;6221121;23;20066;-92
2022/04/05 02:05:57;;;;;;;10.65;1.45;;;;;;;;;;6220842;23;20012;-93
2022/04/05 02:08:23;;;;;;;13.35;1.60;;;;;;;;;;6220361;23;20020;-94
2022/04/05 02:10:49;;;;;;;12.73;1.73;;;;;;;;;;6220921;23;20055;-94
2022/04/05 02:13:15;;;;;;;12.52;1.77;;;;;;;;;;6219854;23;20083;-94
2022/04/05 02:15:41;;;;;;;10.13;1.48;;;;;;;;;;6221092;23;20018;-93
2022/04/05 02:18:07;;;;;;;9.50;1.83;;;;;;;;;;6220613;23;20047;-92
2022/04/05 02:20:34;;;;;;;11.60;1.67;;;;;;;;;;6220481;23;20528;-91
2022/04/05 02:23:00;;;;;;;7.85;1.60;;;;;;;;;;6247291;23;20044;-94
2022/04/05 02:25:26;;;;;;;10.10;1.48;;;;;;;;;;6221212;23;20019;-91
2022/04/05 02:27:53;;;;;;;10.13;2.15;;;;;;;;;;6195490;23;20008;-93
2022/04/05 02:30:19;;;;;;;12.95;1.70;;;;;;;;;;6220842;23;20446;-92
2022/04/05 02:32:45;;;;;;;10.45;1.95;;;;;;;;;;6220346;23;20008;-94
2022/04/05 02:35:11;;;;;;;12.05;1.80;;;;;;;;;;6195644;23;20393;-94
2022/04/05 02:37:37;;;;;;;10.35;1.60;;;;;;;;;;6220836;23;20012;-93
2022/04/05 02:40:04;;;;;;;15.63;2.20;;;;;;;;;;6195536;23;20012;-92
2022/04/05 02:42:30;;;;;;;13.20;2.00;;;;;;;;;;6195360;23;20012;-94
2022/04/05 02:44:56;;;;;;;17.90;2.35;;;;;;;;;;6220769;23;20386;-94
2022/04/05 02:47:22;;;;;;;9.77;1.60;;;;;;;;;;6195509;23;20069;-92
2022/04/05 02:49:49;;;;;;;11.13;2.10;;;;;;;;;;6220294;23;20016;-93
2022/04/05 02:52:15;;;;;;;13.18;1.77;;;;;;;;;;6220127;23;20315;-93
2022/04/05 02:54:42;;;;;;;10.48;1.95;;;;;;;;;;6222154;23;20016;-92
2022/04/05 02:57:08;;;;;;;14.13;1.73;;;;;;;;;;6220657;23;20016;-94
2022/04/05 02:59:34;;;;;;;15.93;2.30;;;;;;;;;;6222891;23;20398;-94
2022/04/05 03:02:00;;;;;;;11.52;2.75;;;;;;;;;;6220227;23;20446;-93
2022/04/05 03:04:26;;;;;;;11.27;2.20;;;;;;;;;;6222130;23;20080;-93
2022/04/05 03:06:52;;;;;;;19.20;2.90;;;;;;;;;;6221064;23;20018;-93
2022/04/05 03:09:18;;;;;;;17.83;2.78;;;;;;;;;;6220443;23;20067;-94
2022/04/05 03:11:44;;;;;;;14.05;2.22;;;;;;;;;;6223017;23;20496;-93
2022/04/05 03:14:10;;;;;;;12.25;1.98;;;;;;;;;;6222060;23;20101;-93
2022/04/05 03:16:37;;;;;;;13.80;2.30;;;;;;;;;;6223827;23;20064;-94
2022/04/05 03:19:05;;;;;;;19.83;2.80;;;;;;;;;;6224343;23;20023;-94
2022/04/05 03:21:32;;;;;;;11.60;1.80;;;;;;;;;;6202152;23;20048;-93
2022/04/05 03:23:58;;;;;;;18.20;2.45;;;;;;;;;;6224794;23;20016;-94
2022/04/05 03:26:24;;;;;;;14.40;2.63;;;;;;;;;;6202001;23;20016;-93
2022/04/05 03:28:50;;;;;;;15.10;2.95;;;;;;;;;;6226964;23;20050;-93
2022/04/05 03:31:25;;;;;;;10.35;2.20;;;;;;;;;;6228589;23;20012;-95
2022/04/05 03:33:51;;;;;;;14.90;2.23;;;;;;;;;;6228650;23;20012;-93
2022/04/05 03:36:17;;;;;;;15.00;2.20;;;;;;;;;;6223762;23;20246;-93
2022/04/05 03:38:43;;;;;;;23.00;2.40;;;;;;;;;;6197242;23;20044;-93
2022/04/05 03:41:09;;;;;;;14.38;2.03;;;;;;;;;;6221368;23;20016;-95
2022/04/05 03:43:35;;;;;;;18.40;2.95;;;;;;;;;;6220883;23;20026;-94
2022/04/05 03:46:01;;;;;;;14.50;2.13;;;;;;;;;;6221649;23;20094;-92
2022/04/05 03:48:27;;;;;;;16.48;2.53;;;;;;;;;;6194949;23;20012;-94
2022/04/05 03:50:53;;;;;;;11.55;1.67;;;;;;;;;;6221027;23;20016;-94
2022/04/05 03:53:19;;;;;;;18.75;2.22;;;;;;;;;;6220139;23;20016;-94
2022/04/05 03:55:45;;;;;;;11.43;1.65;;;;;;;;;;6220704;23;20012;-95
2022/04/05 03:58:12;;;;;;;14.02;2.30;;;;;;;;;;6195549;23;20409;-94
2022/04/05 04:00:38;;;;;;;15.70;2.80;;;;;;;;;;6221390;23;20016;-95
2022/04/05 04:03:04;;;;;;;12.77;1.83;;;;;;;;;;6220629;23;20019;-93
2022/04/05 04:05:30;;;;;;;13.13;2.03;;;;;;;;;;6220848;23;20008;-94
2022/04/05 04:07:59;;;;;;;21.58;2.65;;;;;;;;;;6219679;23;20449;-93
2022/04/05 04:10:30;;;;;;;15.05;1.90;;;;;;;;;;6234527;23;20026;-93
2022/04/05 04:12:56;;;;;;;19.73;2.75;;;;;;;;;;6199167;23;20016;-93
2022/04/05 04:15:22;;;;;;;19.75;2.90;;;;;;;;;;6220115;23;20020;-92
2022/04/05 04:17:49;;;;;;;13.13;2.25;;;;;;;;;;6219554;23;20016;-93
2022/04/05 04:20:15;;;;;;;18.52;2.78;;;;;;;;;;6219996;23;20086;-94
2022/04/05 04:22:40;;;;;;;17.48;2.45;;;;;;;;;;6219668;23;20015;-94
2022/04/05 04:25:07;;;;;;;11.18;3.05;;;;;;;;;;6219562;23;20396;-92
2022/04/05 04:27:34;;;;;;;15.60;2.22;;;;;;;;;;6219781;23;20012;-93
2022/04/05 04:30:00;;;;;;;14.68;3.13;;;;;;;;;;6223100;23;20012;-93
2022/04/05 04:32:26;;;;;;;16.33;2.67;;;;;;;;;;6195480;23;20012;-94
2022/04/05 04:34:52;;;;;;;15.20;2.15;;;;;;;;;;6225778;23;20043;-92
2022/04/05 04:37:18;;;;;;;17.83;2.30;;;;;;;;;;6201801;23;20016;-94
2022/04/05 04:39:44;;;;;;;13.27;1.77;;;;;;;;;;6224802;23;20008;-93
2022/04/05 04:42:12;;;;;;;10.15;2.20;;;;;;;;;;6222723;23;20140;-93
2022/04/05 04:44:38;;;;;;;21.05;2.92;;;;;;;;;;6222860;23;20016;-94
2022/04/05 04:47:04;;;;;;;19.70;2.72;;;;;;;;;;6229042;23;20012;-94
2022/04/05 04:49:30;;;;;;;11.85;1.75;;;;;;;;;;6226194;23;20023;-93
2022/04/05 04:51:56;;;;;;;16.92;2.20;;;;;;;;;;6198848;23;20020;-94
2022/04/05 04:54:23;;;;;;;17.60;2.13;;;;;;;;;;6222362;23;20099;-95
2022/04/05 04:56:49;;;;;;;11.45;1.70;;;;;;;;;;6198676;23;20012;-93
2022/04/05 04:59:15;;;;;;;18.00;1.67;;;;;;;;;;6222216;23;20016;-94
2022/04/05 05:01:41;;;;;;;17.98;2.58;;;;;;;;;;6223117;23;20015;-93
2022/04/05 05:04:06;;;;;;;15.02;2.17;;;;;;;;;;6222920;23;20066;-94
2022/04/05 05:06:32;;;;;;;13.50;2.20;;;;;;;;;;6221791;23;20012;-94
2022/04/05 05:08:58;;;;;;;11.88;2.20;;;;;;;;;;6222200;23;20024;-94
2022/04/05 05:11:25;;;;;;;17.15;2.40;;;;;;;;;;6223696;23;20016;-93
2022/04/05 05:13:51;;;;;;;12.80;2.30;;;;;;;;;;6196701;23;20095;-94
2022/04/05 05:16:17;;;;;;;16.52;2.30;;;;;;;;;;6226562;23;20341;-93
2022/04/05 05:18:43;;;;;;;15.70;2.65;;;;;;;;;;6221910;23;20040;-94
2022/04/05 05:21:09;;;;;;;17.15;2.40;;;;;;;;;;6197912;23;20090;-93
2022/04/05 05:23:35;;;;;;;11.05;2.05;;;;;;;;;;6223584;23;20020;-93
2022/04/05 05:26:01;;;;;;;14.88;2.33;;;;;;;;;;6226128;23;20012;-94
2022/04/05 05:28:27;;;;;;;12.05;3.58;;;;;;;;;;6229160;23;20023;-93
2022/04/05 05:30:53;;;;;;;12.80;2.13;;;;;;;;;;6226327;23;20314;-93
2022/04/05 05:33:19;;;;;;;16.83;2.35;;;;;;;;;;6231729;23;20031;-96
2022/04/05 05:35:45;;;;;;;11.23;2.22;;;;;;;;;;6227189;23;20012;-94
2022/04/05 05:38:11;;;;;;;13.63;2.53;;;;;;;;;;6224920;23;20033;-94
2022/04/05 05:40:37;;;;;;;14.15;2.30;;;;;;;;;;6200876;23;20007;-94
2022/04/05 05:43:04;;;;;;;16.38;2.10;;;;;;;;;;6225946;23;20012;-94
2022/04/05 05:45:34;;;;;;;14.95;2.35;;;;;;;;;;6226020;23;20032;-94
2022/04/05 05:48:00;;;;;;;12.55;2.30;;;;;;;;;;6223096;23;20012;-93
2022/04/05 05:50:27;;;;;;;19.15;2.53;;;;;;;;;;6221214;23;20131;-94
2022/04/05 05:52:53;;;;;;;18.50;2.47;;;;;;;;;;6221383;23;20499;-94
2022/04/05 05:55:20;;;;;;;12.07;2.03;;;;;;;;;;6221122;23;20020;-94
2022/04/05 05:57:47;;;;;;;14.45;1.60;;;;;;;;;;6222201;23;20039;-92
2022/04/05 06:00:20;;;;;;;14.52;2.58;;;;;;;;;;6203098;23;20015;-92
2022/04/05 06:02:47;;;;;;;13.27;2.45;;;;;;;;;;6199154;23;20014;-94
2022/04/05 06:05:13;;;;;;;12.00;1.83;;;;;;;;;;6222767;23;20016;-93
2022/04/05 06:07:39;;;;;;;13.18;1.90;;;;;;;;;;6196515;23;20020;-94
2022/04/05 06:10:07;;;;;;;15.02;2.65;;;;;;;;;;6235677;23;20024;-93
2022/04/05 06:12:33;;;;;;;11.85;2.15;;;;;;;;;;6228640;23;20051;-94
2022/04/05 06:14:59;;;;;;;9.63;2.42;;;;;;;;;;6223488;23;20020;-95
2022/04/05 06:17:25;;;;;;;14.60;2.85;;;;;;;;;;6230573;23;20048;-94
2022/04/05 06:19:51;;;;;;;14.10;2.70;;;;;;;;;;6234504;23;20045;-93
2022/04/05 06:22:18;;;;;;;16.73;3.13;;;;;;;;;;6227117;23;20468;-93
2022/04/05 06:24:44;;;;;;;13.77;3.10;;;;;;;;;;6198720;23;20454;-94
2022/04/05 06:27:10;;;;;;;16.55;3.05;;;;;;;;;;6224127;23;20020;-93
2022/04/05 06:29:36;;;;;;;13.23;3.50;;;;;;;;;;6199398;23;20012;-94
2022/04/05 06:32:02;;;;;;;11.18;3.30;;;;;;;;;;6224823;23;20091;-94
2022/04/05 06:34:29;;;;;;;12.85;2.75;;;;;;;;;;6227488;23;20015;-95
2022/04/05 06:36:55;;;;;;;11.85;2.35;;;;;;;;;;6199738;23;20452;-94
2022/04/05 06:39:21;;;;;;;14.35;3.15;;;;;;;;;;6226014;23;20023;-95
2022/04/05 06:41:47;;;;;;;12.73;2.55;;;;;;;;;;6224923;23;20012;-93
2022/04/05 06:44:13;;;;;;;6.97;2.45;;;;;;;;;;6231190;23;20091;-94
2022/04/05 06:46:39;;;;;;;17.48;2.75;;;;;;;;;;6231012;23;20020;-93
2022/04/05 06:49:09;;;;;;;13.20;3.13;;;;;;;;;;6206033;23;20020;-94
2022/04/05 06:51:35;;;;;;;13.23;2.60;;;;;;;;;;6231528;23;20016;-94
2022/04/05 06:54:01;;;;;;;11.93;2.20;;;;;;;;;;6209246;23;20019;-95
2022/04/05 06:56:27;;;;;;;12.73;2.42;;;;;;;;;;6224167;23;20038;-93
2022/04/05 06:58:53;;;;;;;11.10;2.50;;;;;;;;;;6224494;23;20471;-94
2022/04/05 07:01:19;;;;;;;12.68;2.30;;;;;;;;;;6202853;23;20016;-94
2022/04/05 07:03:48;;;;;;;10.98;2.30;;;;;;;;;;6233052;23;20016;-92
2022/04/05 07:06:14;;;;;;;10.48;1.77;;;;;;;;;;6226922;23;20024;-90
2022/04/05 07:08:40;;;;;;;18.90;3.13;;;;;;;;;;6219339;23;20020;-92
2022/04/05 07:11:07;;;;;;;12.85;3.20;;;;;;;;;;6219563;23;20035;-91
2022/04/05 07:13:33;;;;;;;15.02;2.67;;;;;;;;;;6219574;23;20055;-92
2022/04/05 07:15:59;;;;;;;14.18;2.30;;;;;;;;;;6219586;23;20020;-92
2022/04/05 07:18:25;;;;;;;11.82;2.15;;;;;;;;;;6219415;23;20389;-92
2022/04/05 07:20:52;;;;;;;12.82;2.85;;;;;;;;;;6219715;23;20083;-93
2022/04/05 07:23:19;;;;;;;11.90;2.35;;;;;;;;;;6219505;23;20058;-92
2022/04/05 07:25:45;;;;;;;12.70;2.65;;;;;;;;;;6219743;23;20012;-93
2022/04/05 07:28:11;;;;;;;11.27;3.05;;;;;;;;;;6219890;23;20016;-91
2022/04/05 07:30:37;;;;;;;10.63;2.83;;;;;;;;;;6219525;23;20016;-92
2022/04/05 07:33:03;;;;;;;12.43;3.10;;;;;;;;;;6221707;23;20452;-91
2022/04/05 07:35:29;;;;;;;9.18;3.10;;;;;;;;;;6219555;23;20055;-93
2022/04/05 07:37:55;;;;;;;10.10;2.50;;;;;;;;;;6194933;23;20023;-93
2022/04/05 07:40:21;;;;;;;10.02;2.70;;;;;;;;;;6219685;23;20087;-94
2022/04/05 07:42:48;;;;;;;10.23;2.92;;;;;;;;;;6221949;23;20051;-93
2022/04/05 07:45:15;;;;;;;10.25;2.97;;;;;;;;;;6219762;23;20008;-92
2022/04/05 07:47:41;;;;;;;10.95;2.25;;;;;;;;;;6219757;23;20414;-92
2022/04/05 07:50:08;;;;;;;11.43;2.40;;;;;;;;;;6246275;23;20477;-94
2022/04/05 07:52:34;;;;;;;11.90;2.80;;;;;;;;;;6219366;23;20012;-89
2022/04/05 07:55:00;;;;;;;10.07;2.05;;;;;;;;;;6220275;23;20370;-91
2022/04/05 07:57:26;;;;;;;10.32;2.25;;;;;;;;;;6220398;23;20009;-91
2022/04/05 07:59:52;;;;;;;9.73;2.40;;;;;;;;;;6220652;23;20559;-90
2022/04/05 08:02:19;;;;;;;9.10;2.55;;;;;;;;;;6220349;23;20204;-94
2022/04/05 08:04:45;;;;;;;12.18;2.47;;;;;;;;;;6222979;23;20446;-93
2022/04/05 08:07:11;;;;;;;11.00;2.10;;;;;;;;;;6219509;23;20016;-92
2022/04/05 08:09:37;;;;;;;9.18;2.45;;;;;;;;;;6219501;23;20023;-92
2022/04/05 08:12:03;;;;;;;9.10;2.10;;;;;;;;;;6219705;23;20070;-93
2022/04/05 08:14:31;;;;;;;9.32;2.55;;;;;;;;;;6227421;23;20016;-95
2022/04/05 08:16:57;;;;;;;9.90;2.13;;;;;;;;;;6194783;23;20058;-94
2022/04/05 08:19:24;;;;;;;12.35;3.08;;;;;;;;;;6219955;23;20012;-93
2022/04/05 08:21:50;;;;;;;14.10;2.80;;;;;;;;;;6219132;23;20016;-92
2022/04/05 08:24:17;;;;;;;10.27;2.85;;;;;;;;;;6219452;23;20096;-93
2022/04/05 08:26:43;;;;;;;8.30;2.83;;;;;;;;;;6219940;23;20071;-93
2022/04/05 08:29:09;;;;;;;11.25;3.35;;;;;;;;;;6194608;23;20016;-94
2022/04/05 08:31:35;;;;;;;8.25;2.92;;;;;;;;;;6220090;23;20016;-95
2022/04/05 08:34:01;;;;;;;12.25;3.50;;;;;;;;;;6220348;23;20091;-95
2022/04/05 08:36:28;;;;;;;9.90;3.13;;;;;;;;;;6220066;23;20016;-94
2022/04/05 08:38:54;;;;;;;9.57;3.35;;;;;;;;;;6195760;23;20019;-94
2022/04/05 08:41:20;;;;;;;10.77;2.95;;;;;;;;;;6220333;23;20083;-93
2022/04/05 08:43:48;;;;;;;10.18;2.90;;;;;;;;;;6220463;23;20058;-93
2022/04/05 08:46:15;;;;;;;11.25;2.78;;;;;;;;;;6220590;23;20020;-94
2022/04/05 08:48:41;;;;;;;8.27;2.50;;;;;;;;;;6221225;23;20016;-94
2022/04/05 08:51:07;;;;;;;8.13;2.42;;;;;;;;;;6220632;23;20445;-92
2022/04/05 08:53:33;;;;;;;9.30;2.33;;;;;;;;;;6221375;23;20091;-93
2022/04/05 08:56:00;;;;;;;8.30;1.77;;;;;;;;;;6220437;23;20012;-93
2022/04/05 08:58:26;;;;;;;7.40;1.65;;;;;;;;;;6226351;23;20031;-92
2022/04/05 09:00:55;;;;;;;10.65;2.45;;;;;;;;;;6195506;23;20126;-93
2022/04/05 09:03:21;;;;;;;9.15;2.40;;;;;;;;;;6219787;23;20036;-93
2022/04/05 09:05:47;;;;;;;10.13;2.22;;;;;;;;;;6189515;23;20099;-94
2022/04/05 09:08:13;;;;;;;7.70;2.13;;;;;;;;;;6214339;23;20020;-93
2022/04/05 09:10:40;;;;;;;9.73;2.25;;;;;;;;;;6214487;23;20016;-90
2022/04/05 09:13:09;;;;;;;9.20;2.25;;;;;;;;;;6214188;23;20066;-92
2022/04/05 09:15:35;;;;;;;10.30;2.40;;;;;;;;;;6214187;23;20024;-94
2022/04/05 09:18:01;;;;;;;8.93;2.10;;;;;;;;;;6216063;23;20020;-92
2022/04/05 09:20:27;;;;;;;7.93;1.77;;;;;;;;;;6214503;22;20247;-95
2022/04/05 09:22:54;;;;;;;9.30;1.98;;;;;;;;;;6215518;22;20028;-94
2022/04/05 09:25:20;;;;;;;4.28;1.80;;;;;;;;;;6214340;23;20442;-93
2022/04/05 09:27:46;;;;;;;7.65;1.40;;;;;;;;;;6189050;23;20016;-94
2022/04/05 09:30:13;;;;;;;5.68;1.73;;;;;;;;;;6216237;23;20020;-94
2022/04/05 09:32:42;;;;;;;5.95;1.75;;;;;;;;;;6216293;23;20012;-93
2022/04/05 09:35:08;;;;;;;6.05;1.75;;;;;;;;;;6214162;23;20364;-94
2022/04/05 09:37:38;;;;;;;7.88;1.55;;;;;;;;;;6214433;23;20019;-93
2022/04/05 09:40:20;;;;;;;8.88;2.17;;;;;;;;;;6214321;23;20389;-93
2022/04/05 09:43:05;;;;;;;6.93;1.85;;;;;;;;;;6214005;23;20015;-93
2022/04/05 09:45:50;;;;;;;5.28;1.50;;;;;;;;;;6214452;23;20153;-95
2022/04/05 09:48:20;;;;;;;6.00;1.80;;;;;;;;;;6214142;23;20231;-93
2022/04/05 09:51:05;;;;;;;6.05;1.80;;;;;;;;;;6214225;23;20012;-92
2022/04/05 09:53:40;;;;;;;6.82;2.25;;;;;;;;;;6214687;23;20417;-93
2022/04/05 09:56:07;;;;;;;7.73;1.80;;;;;;;;;;6213835;23;20092;-91
2022/04/05 10:01:51;;;;;;;6.47;1.80;;;;;;;;;;5110992;27;20373;-93
2022/04/05 10:04:18;;;;;;;7.82;2.00;;;;;;;;;;5110629;28;20471;-92
2022/04/05 10:06:47;;;;;;;10.35;1.88;;;;;;;;;;5109301;28;20178;-93
2022/04/05 10:09:14;;;;;;;6.38;1.73;;;;;;;;;;5110670;28;20047;-93
2022/04/05 10:11:40;;;;;;;6.07;1.90;;;;;;;;;;5109641;28;20462;-93
2022/04/05 10:14:08;;;;;;;6.25;1.63;;;;;;;;;;5111600;28;20483;-91
2022/04/05 10:16:35;;;;;;;4.03;1.35;;;;;;;;;;5110358;28;20381;-93
2022/04/05 10:21:42;;;;;;;10.82;1.95;;;;;;;;;;5670283;22;20053;-93
2022/04/05 10:24:09;;;;;;;5.07;1.73;;;;;;;;;;5049755;28;20045;-93
2022/04/05 10:26:36;;;;;;;4.88;1.77;;;;;;;;;;5049510;28;20094;-93
2022/04/05 10:29:04;;;;;;;5.10;1.63;;;;;;;;;;5050196;28;20049;-93
2022/04/05 10:31:43;;;;;;;8.38;2.00;;;;;;;;;;5044702;28;20122;-92
2022/04/05 10:34:27;;;;;;;6.78;1.92;;;;;;;;;;5029688;28;20115;-93
2022/04/05 10:37:16;;;;;;;5.10;1.70;;;;;;;;;;5035276;28;20043;-93
2022/04/05 10:40:02;;;;;;;6.78;1.77;;;;;;;;;;5049256;28;20092;-94
2022/04/05 10:42:35;;;;;;;6.03;1.60;;;;;;;;;;5048879;28;20392;-93
2022/04/05 10:45:21;;;;;;;5.85;1.27;;;;;;;;;;5049587;28;20041;-93
2022/04/05 10:48:05;;;;;;;5.82;1.67;;;;;;;;;;5049114;28;20499;-95
2022/04/05 10:50:31;;;;;;;3.45;1.15;;;;;;;;;;5049738;28;20045;-94
2022/04/05 10:53:17;;;;;;;5.10;1.48;;;;;;;;;;5031340;28;20048;-94
2022/04/05 10:56:20;;;;;;;4.15;1.55;;;;;;;;;;5038725;28;20095;-96
2022/04/05 10:58:55;;;;;;;4.07;1.48;;;;;;;;;;4992230;28;20038;-93
2022/04/05 11:01:22;;;;;;;4.78;1.25;;;;;;;;;;5041787;28;20067;-93
2022/04/05 11:04:24;;;;;;;4.68;1.38;;;;;;;;;;5048963;28;20045;-94
2022/04/05 11:06:59;;;;;;;5.93;1.38;;;;;;;;;;4992353;28;20264;-93
2022/04/05 11:09:29;;;;;;;4.60;1.30;;;;;;;;;;5041215;28;20141;-95
2022/04/05 11:11:55;;;;;;;3.95;1.63;;;;;;;;;;5041968;28;20057;-92
2022/04/05 11:14:41;;;;;;;6.72;3.95;;;;;;;;;;5035590;28;20045;-93
2022/04/05 11:17:07;;;;;;;6.55;3.95;;;;;;;;;;5035609;28;20045;-92
2022/04/05 11:19:35;;;;;;;3.67;1.60;;;;;;;;;;5018886;28;20059;-94
2022/04/05 11:22:05;;;;;;;3.78;1.13;;;;;;;;;;5020493;28;20065;-93
2022/04/05 11:25:10;;;;;;;3.70;1.30;;;;;;;;;;5015584;28;20045;-94
2022/04/05 11:27:45;;;;;;;5.35;1.35;;;;;;;;;;4977713;28;20050;-94
2022/04/05 11:30:36;;;;;;;4.25;1.45;;;;;;;;;;4979124;28;20057;-94
2022/04/05 11:33:21;;;;;;;5.18;1.35;;;;;;;;;;4986532;28;20050;-93
2022/04/05 11:35:48;;;;;;;2.85;1.17;;;;;;;;;;5015513;28;20045;-94
2022/04/05 11:38:17;;;;;;;4.45;1.50;;;;;;;;;;5015403;28;20048;-95
2022/04/05 11:40:47;;;;;;;3.33;1.55;;;;;;;;;;5016558;28;20045;-93
2022/04/05 11:43:22;;;;;;;4.85;1.77;;;;;;;;;;5015315;28;20037;-93
2022/04/05 11:45:49;;;;;;;3.53;1.48;;;;;;;;;;4998956;28;20042;-91
2022/04/05 11:48:16;;;;;;;2.75;1.20;;;;;;;;;;5018924;28;20080;-93
2022/04/05 11:50:42;;;;;;;3.45;1.40;;;;;;;;;;5084880;23;20050;-93
2022/04/05 11:53:37;;;;;;;3.85;1.45;;;;;;;;;;4998653;28;20394;-95
2022/04/05 11:56:11;;;;;;;3.67;1.58;;;;;;;;;;5007658;28;20371;-92
2022/04/05 11:58:39;;;;;;;2.92;1.20;;;;;;;;;;5014792;28;20041;-94
2022/04/05 12:01:06;;;;;;;3.85;1.40;;;;;;;;;;5015293;28;20081;-93
2022/04/05 12:03:44;;;;;;;4.05;1.55;;;;;;;;;;5014568;28;20045;-93
2022/04/05 12:06:11;;;;;;;3.58;1.30;;;;;;;;;;5015216;28;20042;-93
2022/04/05 12:08:37;;;;;;;2.83;1.20;;;;;;;;;;5013769;28;20034;-92
2022/04/05 12:11:04;;;;;;;2.47;1.10;;;;;;;;;;5014549;28;20041;-92
2022/04/05 12:13:31;;;;;;;3.05;1.45;;;;;;;;;;4997573;28;20092;-93
2022/04/05 12:16:01;;;;;;;2.88;1.13;;;;;;;;;;5015609;28;20046;-93
2022/04/05 12:18:30;;;;;;;2.67;1.17;;;;;;;;;;5013139;28;20037;-93
2022/04/05 12:20:56;;;;;;;3.90;1.48;;;;;;;;;;5014226;28;20073;-92
2022/04/05 12:23:23;;;;;;;3.50;1.48;;;;;;;;;;5015521;28;20122;-93
2022/04/05 12:26:05;;;;;;;3.83;1.63;;;;;;;;;;5015903;28;20037;-93
2022/04/05 12:28:31;;;;;;;4.03;1.60;;;;;;;;;;5014241;28;20042;-92
2022/04/05 12:31:08;;;;;;;3.65;1.50;;;;;;;;;;5014486;28;20489;-94
2022/04/05 12:33:34;;;;;;;2.90;1.15;;;;;;;;;;5013740;28;20048;-92
2022/04/05 12:36:00;;;;;;;3.30;1.50;;;;;;;;;;5014169;28;20539;-94
2022/04/05 12:38:26;;;;;;;3.42;1.70;;;;;;;;;;5015063;28;20045;-93
2022/04/05 12:40:52;;;;;;;3.38;1.60;;;;;;;;;;5013841;28;20045;-93
2022/04/05 12:43:22;;;;;;;3.42;1.65;;;;;;;;;;5013376;28;20038;-94
2022/04/05 12:45:49;;;;;;;3.42;1.60;;;;;;;;;;5013726;28;20038;-92
2022/04/05 12:48:15;;;;;;;3.55;1.63;;;;;;;;;;5013690;28;20121;-92
2022/04/05 12:50:46;;;;;;;3.83;1.92;;;;;;;;;;5013831;28;20058;-93
2022/04/05 12:53:15;;;;;;;5.32;2.30;;;;;;;;;;5013528;28;20133;-92
2022/04/05 12:55:41;;;;;;;4.13;1.95;;;;;;;;;;5013699;28;20052;-93
2022/04/05 12:58:07;;;;;;;3.58;1.75;;;;;;;;;;4997098;28;20046;-95
2022/04/05 13:00:42;;;;;;;4.07;2.03;;;;;;;;;;5013366;28;20095;-91
2022/04/05 13:03:10;;;;;;;4.35;2.25;;;;;;;;;;5012874;28;20046;-91
2022/04/05 13:08:35;;;;;;;4.95;2.40;;;;;;;;;;5013485;28;20420;-94
2022/04/05 13:11:01;;;;;;;4.30;1.98;;;;;;;;;;5014782;28;20052;-92
2022/04/05 13:13:33;;;;;;;4.97;2.28;;;;;;;;;;5013032;28;20129;-93
2022/04/05 13:16:02;;;;;;;5.35;2.95;;;;;;;;;;5013616;28;20121;-93
2022/04/05 13:18:33;;;;;;;5.80;3.17;;;;;;;;;;5013144;28;20033;-93
2022/04/05 13:21:00;;;;;;;6.85;3.53;;;;;;;;;;5012845;28;20049;-91
2022/04/05 13:23:26;;;;;;;7.53;3.67;;;;;;;;;;4996772;28;20038;-92
2022/04/05 13:25:52;;;;;;;6.05;3.47;;;;;;;;;;4997063;28;20038;-94
2022/04/05 13:28:18;;;;;;;7.45;4.13;;;;;;;;;;5012892;28;20042;-92
2022/04/05 13:30:45;;;;;;;8.05;4.43;;;;;;;;;;5012967;28;20048;-93
2022/04/05 13:33:12;;;;;;;9.98;5.05;;;;;;;;;;5013215;28;20489;-92
2022/04/05 13:35:38;;;;;;;8.43;4.38;;;;;;;;;;5012412;28;20046;-93
2022/04/05 13:38:04;;;;;;;8.23;4.05;;;;;;;;;;5012903;28;20148;-92
2022/04/05 13:40:32;;;;;;;6.60;3.50;;;;;;;;;;4996199;28;20520;-93
2022/04/05 13:42:58;;;;;;;7.15;3.80;;;;;;;;;;5012929;28;20038;-92
2022/04/05 13:45:24;;;;;;;8.45;3.72;;;;;;;;;;5012883;28;20038;-94
2022/04/05 13:47:50;;;;;;;9.68;4.18;;;;;;;;;;5012881;28;20042;-93
2022/04/05 13:50:16;;;;;;;8.55;4.30;;;;;;;;;;4996547;28;20477;-92
2022/04/05 13:52:43;;;;;;;9.10;4.05;;;;;;;;;;4996651;28;20115;-93
2022/04/05 13:55:09;;;;;;;8.57;4.15;;;;;;;;;;5012530;28;20045;-93
2022/04/05 13:57:35;;;;;;;10.93;4.75;;;;;;;;;;5012658;28;20103;-93
2022/04/05 14:00:03;;;;;;;11.45;4.68;;;;;;;;;;5012523;28;20142;-93
2022/04/05 14:02:29;;;;;;;10.00;4.63;;;;;;;;;;4996298;28;20046;-93
2022/04/05 14:04:56;;;;;;;14.07;5.60;;;;;;;;;;5012535;28;20050;-92
2022/04/05 14:07:22;;;;;;;12.13;5.60;;;;;;;;;;5012480;28;20133;-92
2022/04/05 14:09:48;;;;;;;11.88;5.30;;;;;;;;;;5012604;28;20049;-93
2022/04/05 14:12:14;;;;;;;13.38;5.85;;;;;;;;;;5013903;28;20037;-91
2022/04/05 14:14:40;;;;;;;14.75;6.07;;;;;;;;;;5012569;28;20046;-92
2022/04/05 14:17:06;;;;;;;12.05;5.97;;;;;;;;;;5012584;28;20046;-93
2022/04/05 14:19:33;;;;;;;11.68;6.07;;;;;;;;;;5012224;28;20149;-91
2022/04/05 14:21:59;;;;;;;16.77;6.53;;;;;;;;;;5013556;28;20100;-94
2022/04/05 14:24:25;;;;;;;18.58;6.97;;;;;;;;;;5012389;28;20038;-94
2022/04/05 14:26:51;;;;;;;19.38;7.38;;;;;;;;;;5012269;28;20073;-92
2022/04/05 14:29:17;;;;;;;17.98;7.32;;;;;;;;;;5012313;28;20038;-92
2022/04/05 14:31:45;;;;;;;20.67;7.35;;;;;;;;;;5012979;28;20124;-93
2022/04/05 14:34:12;;;;;;;21.05;7.63;;;;;;;;;;4996177;28;20072;-92
2022/04/05 14:36:38;;;;;;;19.30;7.43;;;;;;;;;;5012876;28;20050;-93
2022/04/05 14:39:05;;;;;;;19.02;7.80;;;;;;;;;;5012282;28;20046;-92
2022/04/05 14:41:32;;;;;;;19.48;7.68;;;;;;;;;;5012531;28;20042;-93
2022/04/05 14:43:59;;;;;;;17.05;6.90;;;;;;;;;;4996136;28;20045;-92
2022/04/05 14:46:29;;;;;;;17.80;7.88;;;;;;;;;;5012742;28;20038;-93
2022/04/05 14:48:55;;;;;;;17.25;6.57;;;;;;;;;;5015945;28;20048;-91